createdAt,value
2022-10-04T00:01:51.110Z,98139.31
2022-10-04T00:04:24.606Z,98144.59
2022-10-04T00:06:59.307Z,98146.88
2022-10-04T00:09:32.858Z,98145.28
2022-10-04T00:12:01.990Z,98138.84
2022-10-04T00:14:31.796Z,98147.16
2022-10-04T00:17:09.718Z,98141.72
2022-10-04T00:19:42.275Z,98137.41
2022-10-04T00:22:12.561Z,98141.19
2022-10-04T00:25:22.709Z,98131.47
2022-10-04T00:28:18.502Z,98140.41
2022-10-04T00:31:06.924Z,98134.28
2022-10-04T00:33:37.980Z,98127.78
2022-10-04T00:36:48.311Z,98134.75
2022-10-04T00:39:42.550Z,98135.84
2022-10-04T00:42:46.252Z,98121.00
2022-10-04T00:45:27.837Z,98128.69
2022-10-04T00:48:05.875Z,98131.22
2022-10-04T00:50:42.050Z,98124.66
2022-10-04T00:53:20.068Z,98126.69
2022-10-04T00:55:52.386Z,98124.19
2022-10-04T00:58:26.449Z,98116.38
2022-10-04T01:00:55.996Z,98118.09
2022-10-04T01:03:30.758Z,98118.53
2022-10-04T01:06:03.144Z,98113.50
2022-10-04T01:08:35.154Z,98115.31
2022-10-04T01:11:07.962Z,98126.53
2022-10-04T01:13:40.812Z,98122.22
2022-10-04T01:16:16.151Z,98120.63
2022-10-04T01:18:44.436Z,98114.53
2022-10-04T01:21:28.083Z,98126.31
2022-10-04T01:24:18.622Z,98116.91
2022-10-04T01:26:47.050Z,98112.00
2022-10-04T01:29:18.088Z,98112.00
2022-10-04T01:31:48.031Z,98113.25
2022-10-04T01:34:18.399Z,98104.19
2022-10-04T01:36:48.553Z,98105.22
2022-10-04T01:39:19.426Z,98104.31
2022-10-04T01:41:53.977Z,98092.91
2022-10-04T01:44:32.630Z,98105.63
2022-10-04T01:47:04.276Z,98108.16
2022-10-04T01:49:35.209Z,98095.88
2022-10-04T01:52:08.188Z,98109.13
2022-10-04T01:54:41.816Z,98109.94
2022-10-04T01:57:16.139Z,98110.28
2022-10-04T01:59:50.446Z,98111.34
2022-10-04T02:02:24.300Z,98123.13
2022-10-04T02:04:56.586Z,98115.81
2022-10-04T02:07:29.191Z,98120.09
2022-10-04T02:09:59.604Z,98126.38
2022-10-04T02:12:31.353Z,98130.84
2022-10-04T02:15:02.233Z,98119.16
2022-10-04T02:17:33.021Z,98116.25
2022-10-04T02:20:03.046Z,98114.97
2022-10-04T02:22:31.952Z,98112.13
2022-10-04T02:25:01.662Z,98108.16
2022-10-04T02:27:31.559Z,98102.44
2022-10-04T02:30:04.262Z,98110.22
2022-10-04T02:32:51.963Z,98101.06
2022-10-04T02:35:21.297Z,98119.41
2022-10-04T02:37:54.302Z,98120.53
2022-10-04T02:40:31.106Z,98113.19
2022-10-04T02:43:04.370Z,98118.00
2022-10-04T02:45:42.315Z,98116.72
2022-10-04T02:48:27.724Z,98114.81
2022-10-04T02:51:01.398Z,98116.41
2022-10-04T02:53:35.303Z,98112.44
2022-10-04T02:56:05.323Z,98131.97
2022-10-04T02:58:33.771Z,98128.28
2022-10-04T03:01:02.375Z,98126.19
2022-10-04T03:03:31.684Z,98117.88
2022-10-04T03:06:04.325Z,98097.94
2022-10-04T03:08:36.963Z,98119.59
2022-10-04T03:11:06.411Z,98126.22
2022-10-04T03:13:37.120Z,98120.81
2022-10-04T03:16:06.064Z,98117.59
2022-10-04T03:18:36.426Z,98122.03
2022-10-04T03:21:07.431Z,98119.50
2022-10-04T03:23:35.942Z,98119.81
2022-10-04T03:26:14.276Z,98123.50
2022-10-04T03:28:42.675Z,98127.63
2022-10-04T03:31:11.817Z,98123.81
2022-10-04T03:33:39.637Z,98128.50
2022-10-04T03:36:08.329Z,98118.00
2022-10-04T03:38:37.115Z,98118.28
2022-10-04T03:41:07.454Z,98108.22
2022-10-04T03:43:43.912Z,98111.53
2022-10-04T03:46:12.563Z,98115.66
2022-10-04T03:48:44.435Z,98107.13
2022-10-04T03:51:16.608Z,98127.53
2022-10-04T03:53:46.679Z,98115.25
2022-10-04T03:56:19.904Z,98124.72
2022-10-04T03:58:51.247Z,98121.56
2022-10-04T04:01:33.760Z,98131.47
2022-10-04T04:04:07.774Z,98124.44
2022-10-04T04:06:43.349Z,98119.84
2022-10-04T04:09:21.157Z,98124.44
2022-10-04T04:11:51.764Z,98123.78
2022-10-04T04:14:25.485Z,98125.53
2022-10-04T04:16:55.885Z,98121.72
2022-10-04T04:19:26.175Z,98127.28
2022-10-04T04:21:56.278Z,98135.88
2022-10-04T04:24:29.313Z,98135.25
2022-10-04T04:27:01.370Z,98137.75
2022-10-04T04:29:33.520Z,98137.75
2022-10-04T04:32:05.743Z,98142.25
2022-10-04T04:34:36.218Z,98133.97
2022-10-04T04:37:05.783Z,98142.06
2022-10-04T04:39:40.915Z,98147.03
2022-10-04T04:42:18.938Z,98146.06
2022-10-04T04:44:50.042Z,98156.72
2022-10-04T04:47:33.795Z,98160.72
2022-10-04T04:50:06.302Z,98148.78
2022-10-04T04:52:35.866Z,98167.09
2022-10-04T04:55:04.333Z,98159.94
2022-10-04T04:57:34.678Z,98171.09
2022-10-04T05:00:03.380Z,98174.38
2022-10-04T05:02:34.926Z,98175.19
2022-10-04T05:05:24.236Z,98185.53
2022-10-04T05:08:09.577Z,98177.72
2022-10-04T05:10:38.987Z,98191.66
2022-10-04T05:13:12.022Z,98185.84
2022-10-04T05:15:42.771Z,98192.38
2022-10-04T05:18:17.697Z,98192.28
2022-10-04T05:20:51.155Z,98209.03
2022-10-04T05:23:19.016Z,98202.31
2022-10-04T05:25:47.525Z,98206.59
2022-10-04T05:28:18.689Z,98209.81
2022-10-04T05:30:54.617Z,98210.47
2022-10-04T05:33:31.859Z,98214.16
2022-10-04T05:36:25.289Z,98219.06
2022-10-04T05:39:03.517Z,98206.31
2022-10-04T05:41:41.296Z,98220.19
2022-10-04T05:44:23.993Z,98231.19
2022-10-04T05:46:52.038Z,98227.66
2022-10-04T05:49:22.223Z,98226.22
2022-10-04T05:51:53.527Z,98230.53
2022-10-04T05:54:24.509Z,98237.56
2022-10-04T05:57:08.194Z,98239.00
2022-10-04T06:00:00.517Z,98245.56
2022-10-04T06:02:44.132Z,98246.19
2022-10-04T06:05:19.854Z,98225.09
2022-10-04T06:07:56.026Z,98251.28
2022-10-04T06:10:53.797Z,98248.22
2022-10-04T06:13:37.971Z,98253.06
2022-10-04T06:16:21.843Z,98262.56
2022-10-04T06:19:26.824Z,98259.53
2022-10-04T06:22:08.322Z,98263.84
2022-10-04T06:24:38.618Z,98264.31
2022-10-04T06:27:16.376Z,98270.19
2022-10-04T06:29:48.982Z,98275.34
2022-10-04T06:32:39.198Z,98279.75
2022-10-04T06:35:39.844Z,98281.78
2022-10-04T06:38:47.001Z,98281.59
2022-10-04T06:41:30.260Z,98284.13
2022-10-04T06:44:26.144Z,98281.41
2022-10-04T06:47:02.870Z,98292.91
2022-10-04T06:49:46.701Z,98270.88
2022-10-04T06:52:30.748Z,98305.28
2022-10-04T06:55:25.395Z,98302.28
2022-10-04T06:58:18.243Z,98305.28
2022-10-04T07:00:54.144Z,98305.09
2022-10-04T07:03:27.679Z,98311.84
2022-10-04T07:06:03.328Z,98315.19
2022-10-04T07:08:38.568Z,98311.97
2022-10-04T07:11:15.474Z,98314.56
2022-10-04T07:13:52.252Z,98320.94
2022-10-04T07:16:32.034Z,98325.25
2022-10-04T07:19:13.599Z,98332.28
2022-10-04T07:21:53.274Z,98335.69
2022-10-04T07:24:28.058Z,98331.22
2022-10-04T07:26:56.512Z,98343.44
2022-10-04T07:29:29.625Z,98339.34
2022-10-04T07:32:09.258Z,98348.63
2022-10-04T07:34:44.405Z,98339.09
2022-10-04T07:37:15.242Z,98350.66
2022-10-04T07:39:51.402Z,98350.66
2022-10-04T07:42:31.057Z,98353.44
2022-10-04T07:45:11.730Z,98353.09
2022-10-04T07:47:39.922Z,98356.22
2022-10-04T07:50:23.017Z,98359.22
2022-10-04T07:52:59.843Z,98361.81
2022-10-04T07:55:33.240Z,98360.28
2022-10-04T07:58:23.878Z,98359.44
2022-10-04T08:00:58.054Z,98360.84
2022-10-04T08:03:46.434Z,98359.28
2022-10-04T08:06:20.151Z,98369.38
2022-10-04T08:09:10.911Z,98375.97
2022-10-04T08:11:48.085Z,98376.81
2022-10-04T08:14:28.104Z,98386.94
2022-10-04T08:17:14.432Z,98389.03
2022-10-04T08:19:52.850Z,98380.16
2022-10-04T08:22:33.532Z,98395.88
2022-10-04T08:25:12.462Z,98389.38
2022-10-04T08:28:20.865Z,98395.44
2022-10-04T08:31:24.839Z,98404.16
2022-10-04T08:34:09.544Z,98397.56
2022-10-04T08:36:55.568Z,98408.13
2022-10-04T08:39:41.653Z,98407.06
2022-10-04T08:42:41.986Z,98405.59
2022-10-04T08:45:32.350Z,98408.72
2022-10-04T08:48:52.320Z,98411.44
2022-10-04T08:51:53.049Z,98417.47
2022-10-04T08:55:00.589Z,98416.91
2022-10-04T08:57:56.948Z,98420.09
2022-10-04T09:00:36.315Z,98420.63
2022-10-04T09:03:36.695Z,98416.50
2022-10-04T09:06:29.122Z,98429.41
2022-10-04T09:09:39.388Z,98434.16
2022-10-04T09:12:30.040Z,98438.97
2022-10-04T09:15:26.055Z,98438.72
2022-10-04T09:18:04.242Z,98440.88
2022-10-04T09:20:48.748Z,98456.00
2022-10-04T09:23:50.013Z,98453.16
2022-10-04T09:26:23.005Z,98457.28
2022-10-04T09:29:22.374Z,98453.84
2022-10-04T09:32:31.804Z,98454.78
2022-10-04T09:35:40.856Z,98456.56
2022-10-04T09:38:43.792Z,98465.94
2022-10-04T09:41:29.966Z,98470.19
2022-10-04T09:44:20.308Z,98470.50
2022-10-04T09:47:02.126Z,98467.59
2022-10-04T09:49:53.457Z,98464.97
2022-10-04T09:52:34.139Z,98476.81
2022-10-04T09:55:18.521Z,98475.31
2022-10-04T09:58:03.249Z,98472.63
2022-10-04T10:00:37.469Z,98476.03
2022-10-04T10:03:30.291Z,98472.84
2022-10-04T10:06:12.773Z,98473.53
2022-10-04T10:08:49.054Z,98473.09
2022-10-04T10:11:48.737Z,98479.22
2022-10-04T10:14:35.594Z,98474.91
2022-10-04T10:17:17.571Z,98482.28
2022-10-04T10:20:03.151Z,98478.66
2022-10-04T10:22:59.962Z,98477.81
2022-10-04T10:25:46.060Z,98489.75
2022-10-04T10:28:37.054Z,98485.97
2022-10-04T10:31:27.416Z,98496.34
2022-10-04T10:34:44.566Z,98498.09
2022-10-04T10:37:18.825Z,98500.13
2022-10-04T10:40:17.585Z,98501.88
2022-10-04T10:43:05.221Z,98496.94
2022-10-04T10:45:56.595Z,98503.69
2022-10-04T10:48:43.853Z,98504.47
2022-10-04T10:51:20.332Z,98500.81
2022-10-04T10:54:32.095Z,98503.69
2022-10-04T10:57:17.688Z,98505.44
2022-10-04T11:00:18.425Z,98494.00
2022-10-04T11:03:32.055Z,98503.44
2022-10-04T11:06:35.622Z,98493.88
2022-10-04T11:09:30.535Z,98502.88
2022-10-04T11:12:19.818Z,98507.03
2022-10-04T11:15:09.601Z,98515.97
2022-10-04T11:18:04.920Z,98515.03
2022-10-04T11:20:59.377Z,98514.53
2022-10-04T11:24:16.135Z,98515.19
2022-10-04T11:27:13.729Z,98519.69
2022-10-04T11:30:05.361Z,98518.97
2022-10-04T11:33:02.154Z,98529.22
2022-10-04T11:36:09.027Z,98526.41
2022-10-04T11:38:53.228Z,98528.69
2022-10-04T11:41:31.117Z,98518.31
2022-10-04T11:44:19.812Z,98518.84
2022-10-04T11:46:54.879Z,98520.03
2022-10-04T11:49:42.719Z,98527.94
2022-10-04T11:52:52.249Z,98528.13
2022-10-04T11:55:38.362Z,98528.97
2022-10-04T11:58:16.622Z,98517.44
2022-10-04T12:01:20.926Z,98527.38
2022-10-04T12:04:17.704Z,98537.34
2022-10-04T12:07:02.709Z,98510.91
2022-10-04T12:09:41.822Z,98533.56
2022-10-04T12:12:41.609Z,98526.56
2022-10-04T12:15:34.815Z,98525.28
2022-10-04T12:18:32.847Z,98527.94
2022-10-04T12:21:17.654Z,98538.78
2022-10-04T12:24:09.122Z,98536.06
2022-10-04T12:26:55.631Z,98540.66
2022-10-04T12:30:16.990Z,98536.06
2022-10-04T12:32:58.024Z,98541.19
2022-10-04T12:35:32.801Z,98540.38
2022-10-04T12:38:25.163Z,98540.63
2022-10-04T12:41:01.969Z,98536.28
2022-10-04T12:43:36.995Z,98536.84
2022-10-04T12:46:19.125Z,98547.78
2022-10-04T12:49:10.066Z,98536.56
2022-10-04T12:51:51.646Z,98537.03
2022-10-04T12:54:33.433Z,98535.88
2022-10-04T12:57:14.536Z,98541.91
2022-10-04T12:59:54.756Z,98539.94
2022-10-04T13:02:47.892Z,98546.22
2022-10-04T13:05:24.926Z,98545.69
2022-10-04T13:08:08.737Z,98540.09
2022-10-04T13:10:47.844Z,98548.31
2022-10-04T13:13:36.676Z,98557.34
2022-10-04T13:19:17.681Z,98561.31
2022-10-04T13:22:15.654Z,98563.38
2022-10-04T13:25:03.333Z,98568.03
2022-10-04T13:27:43.678Z,98557.41
2022-10-04T13:30:23.347Z,98564.56
2022-10-04T13:33:01.189Z,98551.84
2022-10-04T13:35:36.977Z,98569.81
2022-10-04T13:38:24.807Z,98564.94
2022-10-04T13:41:09.093Z,98563.88
2022-10-04T13:44:08.893Z,98573.09
2022-10-04T13:46:43.722Z,98577.06
2022-10-04T13:49:31.162Z,98572.28
2022-10-04T13:52:33.249Z,98578.56
2022-10-04T13:55:34.914Z,98563.72
2022-10-04T13:58:20.744Z,98580.94
2022-10-04T14:01:07.770Z,98581.81
2022-10-04T14:03:50.968Z,98584.75
2022-10-04T14:06:47.713Z,98586.78
2022-10-04T14:09:51.408Z,98583.59
2022-10-04T14:12:50.108Z,98592.97
2022-10-04T14:15:38.146Z,98595.63
2022-10-04T14:18:32.418Z,98598.81
2022-10-04T14:21:26.736Z,98601.81
2022-10-04T14:24:34.407Z,98593.50
2022-10-04T14:27:53.138Z,98589.69
2022-10-04T14:30:25.380Z,98598.44
2022-10-04T14:33:16.111Z,98593.84
2022-10-04T14:35:52.941Z,98587.00
2022-10-04T14:38:37.398Z,98585.41
2022-10-04T14:41:45.448Z,98599.69
2022-10-04T14:44:46.493Z,98597.72
2022-10-04T14:47:36.460Z,98590.88
2022-10-04T14:50:21.703Z,98586.00
2022-10-04T14:53:03.566Z,98582.47
2022-10-04T14:55:52.449Z,98590.19
2022-10-04T14:58:32.738Z,98595.53
2022-10-04T15:01:14.392Z,98593.25
2022-10-04T15:03:55.281Z,98595.41
2022-10-04T15:06:35.969Z,98606.41
2022-10-04T15:09:40.089Z,98607.75
2022-10-04T15:12:45.858Z,98615.66
2022-10-04T15:15:41.622Z,98618.34
2022-10-04T15:18:28.056Z,98622.19
2022-10-04T15:21:03.222Z,98627.53
2022-10-04T15:23:38.125Z,98613.09
2022-10-04T15:26:50.990Z,98614.66
2022-10-04T15:29:26.355Z,98615.31
2022-10-04T15:32:07.961Z,98625.34
2022-10-04T15:34:45.580Z,98628.75
2022-10-04T15:37:25.329Z,98632.31
2022-10-04T15:40:09.348Z,98634.44
2022-10-04T15:42:38.949Z,98631.41
2022-10-04T15:45:50.036Z,98631.72
2022-10-04T15:48:35.497Z,98638.09
2022-10-04T15:51:12.736Z,98644.47
2022-10-04T15:53:55.896Z,98637.44
2022-10-04T15:56:36.212Z,98641.56
2022-10-04T15:59:26.730Z,98648.41
2022-10-04T16:02:21.215Z,98645.66
2022-10-04T16:05:01.600Z,98657.97
2022-10-04T16:07:51.790Z,98664.81
2022-10-04T16:10:26.582Z,98651.63
2022-10-04T16:13:14.302Z,98658.91
2022-10-04T16:15:48.081Z,98652.19
2022-10-04T16:18:38.006Z,98658.97
2022-10-04T16:21:19.326Z,98660.91
2022-10-04T16:23:48.140Z,98654.53
2022-10-04T16:26:56.287Z,98650.41
2022-10-04T16:29:33.938Z,98647.75
2022-10-04T16:32:12.714Z,98657.44
2022-10-04T16:34:52.727Z,98652.44
2022-10-04T16:37:32.402Z,98656.94
2022-10-04T16:40:06.887Z,98659.88
2022-10-04T16:42:53.685Z,98660.66
2022-10-04T16:45:46.126Z,98667.41
2022-10-04T16:48:27.341Z,98663.28
2022-10-04T16:51:45.970Z,98675.06
2022-10-04T16:54:35.508Z,98678.53
2022-10-04T16:57:16.801Z,98678.06
2022-10-04T16:59:50.217Z,98673.50
2022-10-04T17:02:53.789Z,98690.00
2022-10-04T17:05:47.221Z,98686.34
2022-10-04T17:08:47.915Z,98699.84
2022-10-04T17:11:33.713Z,98689.25
2022-10-04T17:14:06.303Z,98691.84
2022-10-04T17:16:40.810Z,98685.81
2022-10-04T17:19:30.654Z,98697.31
2022-10-04T17:22:08.172Z,98705.16
2022-10-04T17:24:49.699Z,98700.53
2022-10-04T17:27:45.926Z,98706.50
2022-10-04T17:30:18.183Z,98703.97
2022-10-04T17:33:07.558Z,98717.41
2022-10-04T17:35:59.220Z,98716.69
2022-10-04T17:38:36.204Z,98718.34
2022-10-04T17:41:14.821Z,98718.19
2022-10-04T17:44:06.072Z,98719.66
2022-10-04T17:46:42.900Z,98715.50
2022-10-04T17:49:41.168Z,98721.63
2022-10-04T17:52:43.960Z,98724.41
2022-10-04T17:55:19.173Z,98726.66
2022-10-04T17:57:53.768Z,98730.19
2022-10-04T18:00:23.951Z,98740.94
2022-10-04T18:03:02.740Z,98733.28
2022-10-04T18:05:44.169Z,98742.69
2022-10-04T18:08:17.871Z,98740.63
2022-10-04T18:10:50.368Z,98747.06
2022-10-04T18:13:26.960Z,98749.16
2022-10-04T18:16:02.907Z,98757.50
2022-10-04T18:18:38.812Z,98754.97
2022-10-04T18:21:21.015Z,98762.03
2022-10-04T18:23:58.135Z,98752.56
2022-10-04T18:26:29.761Z,98762.69
2022-10-04T18:29:01.733Z,98754.22
2022-10-04T18:31:36.783Z,98764.44
2022-10-04T18:34:18.119Z,98767.34
2022-10-04T18:36:58.416Z,98765.56
2022-10-04T18:39:26.572Z,98766.22
2022-10-04T18:42:19.205Z,98764.78
2022-10-04T18:44:49.666Z,98771.69
2022-10-04T18:47:21.380Z,98773.97
2022-10-04T18:49:54.529Z,98771.22
2022-10-04T18:52:40.858Z,98771.22
2022-10-04T18:55:23.315Z,98774.63
2022-10-04T18:58:17.263Z,98770.31
2022-10-04T19:01:25.934Z,98777.66
2022-10-04T19:04:00.923Z,98780.06
2022-10-04T19:06:32.574Z,98786.78
2022-10-04T19:09:08.692Z,98779.44
2022-10-04T19:11:41.212Z,98780.06
2022-10-04T19:14:23.366Z,98797.84
2022-10-04T19:16:55.420Z,98790.31
2022-10-04T19:19:42.953Z,98789.34
2022-10-04T19:22:24.338Z,98790.00
2022-10-04T19:25:07.040Z,98793.22
2022-10-04T19:27:36.847Z,98787.44
2022-10-04T19:30:17.401Z,98795.72
2022-10-04T19:33:14.751Z,98798.75
2022-10-04T19:35:55.527Z,98796.81
2022-10-04T19:38:49.779Z,98804.34
2022-10-04T19:41:28.070Z,98795.66
2022-10-04T19:44:00.246Z,98792.75
2022-10-04T19:46:37.721Z,98798.63
2022-10-04T19:49:15.382Z,98801.19
2022-10-04T19:51:51.155Z,98809.31
2022-10-04T19:54:32.544Z,98817.38
2022-10-04T19:57:04.062Z,98818.81
2022-10-04T19:59:38.341Z,98820.56
2022-10-04T20:02:09.684Z,98796.66
2022-10-04T20:04:39.355Z,98812.63
2022-10-04T20:07:19.018Z,98814.94
2022-10-04T20:10:07.493Z,98817.38
2022-10-04T20:12:39.082Z,98825.03
2022-10-04T20:15:27.444Z,98826.00
2022-10-04T20:17:56.383Z,98832.06
2022-10-04T20:21:03.312Z,98825.63
2022-10-04T20:23:59.041Z,98839.59
2022-10-04T20:27:09.050Z,98848.84
2022-10-04T20:30:04.219Z,98848.25
2022-10-04T20:32:56.700Z,98846.00
2022-10-04T20:36:14.109Z,98846.03
2022-10-04T20:39:00.491Z,98849.22
2022-10-04T20:42:22.368Z,98862.25
2022-10-04T20:44:55.417Z,98853.41
2022-10-04T20:47:57.494Z,98858.66
2022-10-04T20:50:42.160Z,98843.50
2022-10-04T20:53:22.543Z,98851.19
2022-10-04T20:55:53.965Z,98857.41
2022-10-04T20:58:26.506Z,98857.50
2022-10-04T21:00:56.290Z,98851.75
2022-10-04T21:03:25.809Z,98856.53
2022-10-04T21:06:02.640Z,98863.25
2022-10-04T21:08:31.235Z,98850.13
2022-10-04T21:11:19.156Z,98857.72
2022-10-04T21:13:57.166Z,98871.78
2022-10-04T21:16:42.859Z,98863.94
2022-10-04T21:19:45.773Z,98859.41
2022-10-04T21:22:36.488Z,98854.59
2022-10-04T21:25:27.074Z,98863.41
2022-10-04T21:27:54.968Z,98862.25
2022-10-04T21:30:24.590Z,98872.47
2022-10-04T21:32:52.326Z,98876.94
2022-10-04T21:35:21.438Z,98875.09
2022-10-04T21:37:49.554Z,98876.06
2022-10-04T21:40:17.273Z,98884.72
2022-10-04T21:42:45.044Z,98886.63
2022-10-04T21:45:13.160Z,98884.22
2022-10-04T21:47:41.009Z,98896.31
2022-10-04T21:50:09.259Z,98890.41
2022-10-04T21:52:38.942Z,98892.63
2022-10-04T21:55:10.468Z,98892.63
2022-10-04T21:57:38.584Z,98893.44
2022-10-04T22:00:07.683Z,98889.56
2022-10-04T22:02:35.580Z,98889.91
2022-10-04T22:05:03.672Z,98893.69
2022-10-04T22:07:31.421Z,98895.22
2022-10-04T22:10:00.609Z,98895.22
2022-10-04T22:12:28.614Z,98898.06
2022-10-04T22:14:56.342Z,98889.22
2022-10-04T22:17:24.287Z,98891.22
2022-10-04T22:19:52.922Z,98900.88
2022-10-04T22:22:20.737Z,98888.44
2022-10-04T22:24:48.606Z,98886.94
2022-10-04T22:27:20.788Z,98890.44
2022-10-04T22:29:48.770Z,98889.53
2022-10-04T22:32:22.537Z,98896.56
2022-10-04T22:34:51.343Z,98903.31
2022-10-04T22:37:25.030Z,98904.09
2022-10-04T22:39:53.830Z,98876.16
2022-10-04T22:42:28.722Z,98901.50
2022-10-04T22:44:56.944Z,98893.53
2022-10-04T22:47:25.793Z,98880.03
2022-10-04T22:49:57.532Z,98877.41
2022-10-04T22:52:27.423Z,98881.06
2022-10-04T22:55:00.453Z,98880.47
2022-10-04T22:57:31.534Z,98870.56
2022-10-04T22:59:59.352Z,98862.19
2022-10-04T23:02:31.187Z,98859.97
2022-10-04T23:05:10.342Z,98857.06
2022-10-04T23:07:38.766Z,98852.19
2022-10-04T23:10:08.147Z,98842.34
2022-10-04T23:12:37.892Z,98828.69
2022-10-04T23:15:07.587Z,98829.88
2022-10-04T23:17:39.609Z,98836.28
2022-10-04T23:20:13.591Z,98847.91
2022-10-04T23:22:44.720Z,98848.47
2022-10-04T23:25:18.123Z,98856.50
2022-10-04T23:27:48.128Z,98857.16
2022-10-04T23:30:18.197Z,98857.28
2022-10-04T23:32:48.075Z,98869.63
2022-10-04T23:35:20.360Z,98871.75
2022-10-04T23:37:48.878Z,98875.06
2022-10-04T23:40:19.724Z,98878.78
2022-10-04T23:42:51.863Z,98880.50
2022-10-04T23:45:22.663Z,98877.47
2022-10-04T23:47:54.278Z,98882.09
2022-10-04T23:50:26.226Z,98880.50
2022-10-04T23:52:58.161Z,98883.84
2022-10-04T23:55:30.168Z,98881.22
2022-10-04T23:58:00.509Z,98887.97
